Terminal Aerodrome Forecast
Issued by NWS Louisville, KY

Home | Current Version | Previous Version | Text Only | Print | Product List | Glossary On
Versions: 1 2 3 4 5 6 7 8 9 10 11 12 13
000
FTUS43 KLMK 231720
TAFSDF
TAF
KSDF 231720Z 2318/2424 13006KT P6SM SCT100 BKN250
     FM240600 18010KT P6SM SCT035 BKN070 WS018/20045KT
     FM241600 19012G20KT P6SM BKN035=

USA.gov is the U.S. government's official web portal to all federal, state and local government web resources and services.